createdAt,value
2022-12-02T00:00:40.845Z,101042.53
2022-12-02T00:05:43.666Z,101045.38
2022-12-02T00:10:46.909Z,101037.31
2022-12-02T00:15:56.715Z,101033.53
2022-12-02T00:20:59.639Z,101029.31
2022-12-02T00:26:02.499Z,101024.19
2022-12-02T00:31:06.839Z,101016.28
2022-12-02T00:36:09.805Z,101015.50
2022-12-02T00:41:12.635Z,101006.56
2022-12-02T00:46:35.289Z,101013.78
2022-12-02T00:51:39.750Z,101006.72
2022-12-02T00:56:44.057Z,100997.78
2022-12-02T01:01:48.589Z,100998.75
2022-12-02T01:06:51.535Z,100994.41
2022-12-02T01:11:54.281Z,100983.81
2022-12-02T01:16:58.739Z,100979.47
2022-12-02T01:22:01.534Z,100993.09
2022-12-02T01:27:04.309Z,100986.09
2022-12-02T01:32:08.677Z,100990.78
2022-12-02T01:37:11.563Z,100994.56
2022-12-02T01:42:14.753Z,100988.50
2022-12-02T01:47:19.120Z,100993.28
2022-12-02T01:52:22.519Z,100989.88
2022-12-02T01:57:28.498Z,100991.84
2022-12-02T02:02:35.852Z,100989.44
2022-12-02T02:07:42.061Z,100990.47
2022-12-02T02:12:45.621Z,100986.31
2022-12-02T02:17:49.886Z,100980.16
2022-12-02T02:23:02.248Z,100975.03
2022-12-02T02:28:09.344Z,100967.19
2022-12-02T02:33:16.080Z,100960.19
2022-12-02T02:38:22.192Z,100955.06
2022-12-02T02:43:29.188Z,100955.31
2022-12-02T02:48:33.100Z,100960.00
2022-12-02T02:53:36.385Z,100965.53
2022-12-02T02:58:42.272Z,100959.44
2022-12-02T03:03:49.414Z,100956.09
2022-12-02T03:08:55.315Z,100957.19
2022-12-02T03:14:02.015Z,100952.88
2022-12-02T03:19:05.749Z,100941.41
2022-12-02T03:24:09.681Z,100937.13
2022-12-02T03:29:15.388Z,100942.66
2022-12-02T03:34:18.438Z,100936.66
2022-12-02T03:39:21.869Z,100927.03
2022-12-02T03:44:25.963Z,100921.78
2022-12-02T03:49:28.914Z,100921.97
2022-12-02T03:54:31.758Z,100915.88
2022-12-02T03:59:36.111Z,100912.44
2022-12-02T04:04:39.094Z,100910.84
2022-12-02T04:09:41.857Z,100910.16
2022-12-02T04:14:45.948Z,100912.91
2022-12-02T04:19:49.045Z,100902.34
2022-12-02T04:24:52.149Z,100904.16
2022-12-02T04:29:56.439Z,100896.16
2022-12-02T04:34:59.235Z,100895.47
2022-12-02T04:40:02.127Z,100885.75
2022-12-02T04:45:07.220Z,100885.75
2022-12-02T04:50:10.692Z,100883.25
2022-12-02T04:55:13.656Z,100878.00
2022-12-02T05:00:18.543Z,100878.09
2022-12-02T05:05:21.415Z,100887.19
2022-12-02T05:10:24.217Z,100879.22
2022-12-02T05:15:28.311Z,100870.28
2022-12-02T05:20:31.083Z,100878.59
2022-12-02T05:25:33.806Z,100869.66
2022-12-02T05:30:37.915Z,100874.25
2022-12-02T05:35:40.766Z,100875.22
2022-12-02T05:40:43.652Z,100881.50
2022-12-02T05:45:48.820Z,100875.28
2022-12-02T05:50:54.205Z,100884.28
2022-12-02T05:55:58.412Z,100883.41
2022-12-02T06:01:02.655Z,100895.97
2022-12-02T06:06:11.782Z,100890.69
2022-12-02T06:11:29.627Z,100893.44
2022-12-02T06:16:35.003Z,100897.03
2022-12-02T06:21:37.914Z,100899.72
2022-12-02T06:26:40.853Z,100894.34
2022-12-02T06:31:45.271Z,100896.13
2022-12-02T06:36:48.201Z,100885.47
2022-12-02T06:41:52.881Z,100893.63
2022-12-02T06:47:17.219Z,100898.13
2022-12-02T06:52:24.043Z,100899.00
2022-12-02T06:57:31.470Z,100908.00
2022-12-02T07:02:35.662Z,100896.41
2022-12-02T07:07:38.633Z,100894.72
2022-12-02T07:12:44.238Z,100888.47
2022-12-02T07:17:48.373Z,100887.53
2022-12-02T07:22:57.395Z,100892.13
2022-12-02T07:28:00.810Z,100891.25
2022-12-02T07:33:05.118Z,100893.06
2022-12-02T07:38:07.861Z,100885.03
2022-12-02T07:43:10.688Z,100887.72
2022-12-02T07:48:14.889Z,100887.63
2022-12-02T07:53:17.941Z,100887.72
2022-12-02T07:58:20.849Z,100881.47
2022-12-02T08:03:25.492Z,100885.41
2022-12-02T08:08:28.232Z,100884.28
2022-12-02T08:13:30.955Z,100875.66
2022-12-02T08:18:35.119Z,100866.91
2022-12-02T08:23:37.990Z,100874.31
2022-12-02T08:28:41.753Z,100873.97
2022-12-02T08:33:45.841Z,100876.53
2022-12-02T08:38:48.968Z,100872.03
2022-12-02T08:43:51.706Z,100874.88
2022-12-02T08:48:56.089Z,100884.16
2022-12-02T08:53:59.017Z,100889.19
2022-12-02T08:59:02.994Z,100887.06
2022-12-02T09:04:07.253Z,100890.47
2022-12-02T09:09:10.810Z,100877.72
2022-12-02T09:14:13.633Z,100885.69
2022-12-02T09:19:17.931Z,100873.94
2022-12-02T09:24:20.703Z,100875.75
2022-12-02T09:29:23.546Z,100872.09
2022-12-02T09:34:27.679Z,100865.88
2022-12-02T09:39:35.588Z,100871.16
2022-12-02T09:44:43.993Z,100869.31
2022-12-02T09:49:49.157Z,100871.16
2022-12-02T09:54:53.754Z,100866.66
2022-12-02T09:59:57.435Z,100873.84
2022-12-02T10:05:07.004Z,100864.91
2022-12-02T10:10:12.549Z,100860.41
2022-12-02T10:15:18.720Z,100861.38
2022-12-02T10:20:26.300Z,100844.28
2022-12-02T10:25:31.578Z,100848.66
2022-12-02T10:30:34.478Z,100853.84
2022-12-02T10:35:47.494Z,100842.06
2022-12-02T10:40:50.467Z,100838.34
2022-12-02T10:45:58.004Z,100835.41
2022-12-02T10:51:02.156Z,100837.03
2022-12-02T10:56:06.357Z,100827.97
2022-12-02T11:01:12.014Z,100828.63
2022-12-02T11:06:17.899Z,100824.16
2022-12-02T11:11:40.490Z,100816.97
2022-12-02T11:17:04.517Z,100816.00
2022-12-02T11:22:47.047Z,100817.31
2022-12-02T11:28:14.210Z,100819.28
2022-12-02T11:34:05.394Z,100804.72
2022-12-02T11:39:12.178Z,100802.19
2022-12-02T11:44:25.731Z,100812.94
2022-12-02T11:49:36.444Z,100811.03
2022-12-02T11:54:42.747Z,100806.88
2022-12-02T11:59:45.532Z,100796.13
2022-12-02T12:05:00.696Z,100812.53
2022-12-02T12:10:05.358Z,100813.28
2022-12-02T12:15:09.027Z,100802.88
2022-12-02T12:20:43.042Z,100801.31
2022-12-02T12:25:47.541Z,100786.75
2022-12-02T12:30:50.402Z,100803.84
2022-12-02T12:35:55.054Z,100797.66
2022-12-02T12:41:00.108Z,100794.97
2022-12-02T12:46:03.216Z,100783.47
2022-12-02T12:51:06.480Z,100786.13
2022-12-02T12:56:10.763Z,100787.97
2022-12-02T13:01:13.572Z,100791.50
2022-12-02T13:06:16.398Z,100795.25
2022-12-02T13:11:20.590Z,100786.13
2022-12-02T13:16:23.433Z,100789.88
2022-12-02T13:21:26.687Z,100788.91
2022-12-02T13:26:30.884Z,100786.91
2022-12-02T13:31:33.773Z,100790.22
2022-12-02T13:36:36.609Z,100792.41
2022-12-02T13:41:40.969Z,100794.75
2022-12-02T13:46:43.843Z,100793.38
2022-12-02T13:51:46.752Z,100789.41
2022-12-02T13:56:50.996Z,100789.81
2022-12-02T14:01:54.037Z,100791.22
2022-12-02T14:06:57.117Z,100792.63
2022-12-02T14:12:01.254Z,100789.59
2022-12-02T14:17:04.185Z,100794.63
2022-12-02T14:22:07.010Z,100795.97
2022-12-02T14:27:11.220Z,100800.13
2022-12-02T14:32:14.100Z,100795.38
2022-12-02T14:37:17.094Z,100802.09
2022-12-02T14:42:21.180Z,100793.88
2022-12-02T14:47:23.928Z,100790.06
2022-12-02T14:52:27.999Z,100793.50
2022-12-02T14:57:32.398Z,100797.81
2022-12-02T15:02:35.268Z,100806.50
2022-12-02T15:07:38.170Z,100804.50
2022-12-02T15:12:42.512Z,100798.00
2022-12-02T15:17:45.288Z,100809.34
2022-12-02T15:22:49.268Z,100814.44
2022-12-02T15:27:53.925Z,100813.31
2022-12-02T15:32:56.669Z,100818.59
2022-12-02T15:37:59.527Z,100829.97
2022-12-02T15:43:03.654Z,100826.16
2022-12-02T15:48:07.117Z,100834.06
2022-12-02T15:53:10.082Z,100819.44
2022-12-02T15:58:14.229Z,100823.69
2022-12-02T16:03:17.301Z,100824.44
2022-12-02T16:08:20.245Z,100825.13
2022-12-02T16:13:24.504Z,100815.91
2022-12-02T16:18:28.548Z,100820.34
2022-12-02T16:23:31.560Z,100831.59
2022-12-02T16:28:36.120Z,100821.50
2022-12-02T16:33:38.985Z,100822.25
2022-12-02T16:38:41.893Z,100829.09
2022-12-02T16:43:46.008Z,100830.66
2022-12-02T16:48:48.829Z,100824.88
2022-12-02T16:53:52.012Z,100834.91
2022-12-02T16:58:56.968Z,100828.44
2022-12-02T17:04:00.157Z,100833.66
2022-12-02T17:09:03.046Z,100829.50
2022-12-02T17:14:07.162Z,100835.50
2022-12-02T17:19:09.950Z,100833.56
2022-12-02T17:24:12.914Z,100834.19
2022-12-02T17:29:17.046Z,100838.91
2022-12-02T17:34:19.833Z,100839.34
2022-12-02T17:39:22.620Z,100835.28
2022-12-02T17:44:27.435Z,100841.91
2022-12-02T17:49:34.257Z,100848.66
2022-12-02T17:54:37.447Z,100853.66
2022-12-02T17:59:41.769Z,100845.88
2022-12-02T18:04:45.039Z,100850.13
2022-12-02T18:09:47.914Z,100852.22
2022-12-02T18:14:52.164Z,100849.28
2022-12-02T18:19:56.005Z,100844.44
2022-12-02T18:24:59.535Z,100846.94
2022-12-02T18:30:03.871Z,100844.13
2022-12-02T18:35:08.445Z,100844.03
2022-12-02T18:40:17.044Z,100841.97
2022-12-02T18:45:21.233Z,100849.91
2022-12-02T18:50:24.375Z,100831.72
2022-12-02T18:55:27.315Z,100844.16
2022-12-02T19:00:31.775Z,100843.19
2022-12-02T19:05:34.609Z,100834.75
2022-12-02T19:10:37.366Z,100838.44
2022-12-02T19:15:41.533Z,100828.78
2022-12-02T19:20:44.287Z,100831.84
2022-12-02T19:25:50.429Z,100834.00
2022-12-02T19:30:55.199Z,100821.97
2022-12-02T19:35:58.063Z,100844.09
2022-12-02T19:41:01.062Z,100839.88
2022-12-02T19:46:05.972Z,100835.75
2022-12-02T19:51:08.855Z,100844.16
2022-12-02T19:56:11.885Z,100846.13
2022-12-02T20:01:16.310Z,100845.75
2022-12-02T20:06:19.450Z,100843.44
2022-12-02T20:11:22.270Z,100840.94
2022-12-02T20:16:26.826Z,100837.56
2022-12-02T20:21:30.315Z,100838.94
2022-12-02T20:26:33.238Z,100839.06
2022-12-02T20:31:37.479Z,100832.88
2022-12-02T20:36:40.356Z,100830.41
2022-12-02T20:41:43.492Z,100827.47
2022-12-02T20:46:47.753Z,100832.31
2022-12-02T20:51:50.571Z,100829.72
2022-12-02T20:56:53.351Z,100828.75
2022-12-02T21:01:57.601Z,100837.81
2022-12-02T21:07:02.960Z,100828.09
2022-12-02T21:12:09.854Z,100829.16
2022-12-02T21:17:14.033Z,100835.41
2022-12-02T21:22:16.843Z,100834.66
2022-12-02T21:27:19.930Z,100840.06
2022-12-02T21:32:24.364Z,100835.81
2022-12-02T21:37:27.490Z,100837.94
2022-12-02T21:42:30.657Z,100834.38
2022-12-02T21:47:34.854Z,100836.91
2022-12-02T21:52:37.695Z,100834.50
2022-12-02T21:57:40.589Z,100834.50
2022-12-02T22:02:44.811Z,100825.66
2022-12-02T22:07:48.412Z,100828.41
2022-12-02T22:12:52.574Z,100829.50
2022-12-02T22:17:56.718Z,100831.63
2022-12-02T22:22:59.653Z,100823.13
2022-12-02T22:28:02.395Z,100821.53
2022-12-02T22:33:06.534Z,100817.38
2022-12-02T22:38:09.403Z,100814.97
2022-12-02T22:43:12.207Z,100811.63
2022-12-02T22:48:16.352Z,100803.81
2022-12-02T22:53:19.134Z,100816.69
2022-12-02T22:58:21.873Z,100823.13
2022-12-02T23:03:26.143Z,100812.66
2022-12-02T23:08:29.839Z,100815.53
2022-12-02T23:13:32.666Z,100813.03
2022-12-02T23:18:37.026Z,100815.06
2022-12-02T23:23:39.887Z,100806.28
2022-12-02T23:28:42.779Z,100803.72
2022-12-02T23:33:46.896Z,100797.63
2022-12-02T23:38:49.761Z,100799.66
2022-12-02T23:43:52.522Z,100801.78
2022-12-02T23:48:56.600Z,100798.28
2022-12-02T23:53:59.380Z,100797.63
2022-12-02T23:59:02.158Z,100796.94
